Time;durP1;ratioP1;P1;durP2;ratioP2;P2;SDS_P1;SDS_P2;PMS_P1;PMS_P2;Temp;Humidity;BMP_temperature;BMP_pressure;BME280_temperature;BME280_humidity;BME280_pressure;Samples;Min_cycle;Max_cycle;Signal;HPM_P1;HPM_P2
2023/07/26 00:01:56;;;;;;;8.87;8.57;;;16.80;99.90;;;;;;5032776;28;20706;-65
2023/07/26 00:04:22;;;;;;;10.20;9.80;;;16.80;99.90;;;;;;5032576;28;20319;-66
2023/07/26 00:06:51;;;;;;;8.83;8.43;;;16.80;99.90;;;;;;5032732;28;20744;-66
2023/07/26 00:09:18;;;;;;;8.27;7.97;;;16.70;99.90;;;;;;5031741;28;20307;-67
2023/07/26 00:11:45;;;;;;;9.00;8.70;;;16.70;99.90;;;;;;5033140;28;20309;-66
2023/07/26 00:14:13;;;;;;;8.23;7.93;;;16.70;99.90;;;;;;5033532;28;20228;-66
2023/07/26 00:16:40;;;;;;;8.37;8.07;;;16.70;99.90;;;;;;5033968;28;20207;-67
2023/07/26 00:19:07;;;;;;;8.30;8.00;;;16.90;99.90;;;;;;5033210;28;20211;-65
2023/07/26 00:21:34;;;;;;;8.70;8.40;;;16.70;99.90;;;;;;5033963;28;20205;-66
2023/07/26 00:24:02;;;;;;;8.33;8.03;;;16.80;99.90;;;;;;5033800;28;20209;-65
2023/07/26 00:26:29;;;;;;;8.70;8.40;;;16.80;99.90;;;;;;5033814;28;20236;-67
2023/07/26 00:28:56;;;;;;;8.63;8.33;;;16.80;99.90;;;;;;5028830;28;20233;-66
2023/07/26 00:31:23;;;;;;;8.27;7.97;;;16.90;99.90;;;;;;5032824;28;20201;-66
2023/07/26 00:33:50;;;;;;;8.37;8.07;;;17.00;99.90;;;;;;5030927;28;20663;-68
2023/07/26 00:36:17;;;;;;;8.63;8.33;;;16.80;99.90;;;;;;5032306;28;20284;-67
2023/07/26 00:38:43;;;;;;;8.10;7.80;;;16.70;99.90;;;;;;5029688;28;20201;-67
2023/07/26 00:41:12;;;;;;;9.07;8.77;;;16.70;99.90;;;;;;5025759;28;20211;-68
2023/07/26 00:43:38;;;;;;;8.57;8.27;;;16.60;99.90;;;;;;5025794;28;20292;-68
2023/07/26 00:46:07;;;;;;;8.37;8.07;;;16.60;99.90;;;;;;5031370;28;20209;-67
2023/07/26 00:48:35;;;;;;;9.33;9.03;;;16.60;99.90;;;;;;5028264;28;20224;-65
2023/07/26 00:51:03;;;;;;;8.93;8.53;;;16.60;99.90;;;;;;5025523;28;20228;-66
2023/07/26 00:53:30;;;;;;;8.70;8.40;;;16.80;99.90;;;;;;5023351;28;20209;-67
2023/07/26 00:55:58;;;;;;;8.43;8.13;;;16.50;99.90;;;;;;5025645;28;20301;-67
2023/07/26 00:58:26;;;;;;;8.90;8.60;;;16.60;99.90;;;;;;5031751;28;20291;-66
2023/07/26 01:00:55;;;;;;;8.53;8.23;;;16.50;99.90;;;;;;5030808;28;20204;-68
2023/07/26 01:03:22;;;;;;;8.90;8.60;;;16.60;99.90;;;;;;5033170;28;20296;-67
2023/07/26 01:06:01;;;;;;;9.07;8.77;;;16.60;99.90;;;;;;5031883;28;20232;-66
2023/07/26 01:08:39;;;;;;;8.73;8.43;;;16.60;99.90;;;;;;5031848;28;20248;-67
2023/07/26 01:11:13;;;;;;;8.80;8.40;;;16.60;99.90;;;;;;5031161;28;20204;-66
2023/07/26 01:13:48;;;;;;;8.90;8.60;;;16.60;99.90;;;;;;5031989;28;20207;-67
2023/07/26 01:16:15;;;;;;;8.90;8.60;;;16.60;99.90;;;;;;5031841;28;20208;-66
2023/07/26 01:18:42;;;;;;;9.00;8.70;;;16.60;99.90;;;;;;5032088;28;20206;-66
2023/07/26 01:21:09;;;;;;;8.97;8.67;;;16.50;99.90;;;;;;5030924;28;20291;-67
2023/07/26 01:23:38;;;;;;;9.17;8.87;;;16.50;99.90;;;;;;5032263;28;20205;-66
2023/07/26 01:26:05;;;;;;;8.53;8.23;;;16.50;99.90;;;;;;5034541;28;20212;-68
2023/07/26 01:28:33;;;;;;;9.30;9.00;;;16.60;99.90;;;;;;5041299;28;20216;-69
2023/07/26 01:31:01;;;;;;;9.50;9.20;;;16.30;99.90;;;;;;5032244;28;20208;-67
2023/07/26 01:33:30;;;;;;;9.97;9.57;;;16.30;99.90;;;;;;5032532;28;20551;-66
2023/07/26 01:35:57;;;;;;;9.73;9.37;;;16.30;99.90;;;;;;5032346;28;20236;-67
2023/07/26 01:38:25;;;;;;;8.87;8.57;;;16.40;99.90;;;;;;5032650;28;20240;-68
2023/07/26 01:40:55;;;;;;;9.47;9.17;;;16.30;99.90;;;;;;5031187;28;20211;-68
2023/07/26 01:43:22;;;;;;;9.10;8.80;;;16.30;99.90;;;;;;5031650;28;20204;-68
2023/07/26 01:45:49;;;;;;;9.00;8.70;;;16.30;99.90;;;;;;5031456;28;20311;-66
2023/07/26 01:48:16;;;;;;;8.70;8.40;;;16.20;99.90;;;;;;5031618;28;20220;-66
2023/07/26 01:50:43;;;;;;;8.97;8.67;;;16.20;99.90;;;;;;5030678;28;20242;-68
2023/07/26 01:53:10;;;;;;;8.73;8.43;;;16.20;99.90;;;;;;5031935;28;20214;-67
2023/07/26 01:55:36;;;;;;;8.70;8.40;;;16.50;99.90;;;;;;5031938;28;20228;-66
2023/07/26 01:58:04;;;;;;;8.57;8.27;;;16.30;99.90;;;;;;5030169;28;20734;-67
2023/07/26 02:00:31;;;;;;;8.90;8.60;;;16.30;99.90;;;;;;5030045;28;20208;-67
2023/07/26 02:02:58;;;;;;;8.50;8.20;;;16.30;99.90;;;;;;5030691;28;20227;-67
2023/07/26 02:05:25;;;;;;;8.67;8.37;;;16.20;99.90;;;;;;5066373;22;20327;-65
2023/07/26 02:07:52;;;;;;;8.80;8.50;;;16.20;99.90;;;;;;5095609;28;20203;-65
2023/07/26 02:10:19;;;;;;;9.00;8.70;;;16.20;99.90;;;;;;5101130;28;20213;-65
2023/07/26 02:12:46;;;;;;;8.80;8.50;;;16.30;99.90;;;;;;5091234;28;20207;-66
2023/07/26 02:15:14;;;;;;;8.77;8.47;;;16.20;99.90;;;;;;5091158;28;20763;-65
2023/07/26 02:17:41;;;;;;;8.40;8.10;;;16.30;99.90;;;;;;5091340;28;20297;-65
2023/07/26 02:20:09;;;;;;;9.10;8.80;;;16.30;99.90;;;;;;5090473;28;20210;-64
2023/07/26 02:22:35;;;;;;;9.07;8.77;;;16.30;99.90;;;;;;5091283;28;20620;-64
2023/07/26 02:25:02;;;;;;;8.52;8.23;;;16.40;99.90;;;;;;5090981;28;20210;-66
2023/07/26 02:27:29;;;;;;;9.17;8.87;;;16.30;99.90;;;;;;5091305;28;20202;-65
2023/07/26 02:29:56;;;;;;;9.30;9.00;;;16.30;99.90;;;;;;5090527;28;20230;-65
2023/07/26 02:32:24;;;;;;;8.90;8.60;;;16.20;99.90;;;;;;5091518;28;20245;-66
2023/07/26 02:34:51;;;;;;;8.53;8.23;;;16.20;99.90;;;;;;5091709;28;20213;-63
2023/07/26 02:37:18;;;;;;;8.60;8.30;;;16.20;99.90;;;;;;5091514;28;20207;-66
2023/07/26 02:39:45;;;;;;;8.23;7.93;;;16.10;99.90;;;;;;5090962;28;20195;-66
2023/07/26 02:42:11;;;;;;;8.70;8.40;;;16.10;99.90;;;;;;5091648;28;20320;-63
2023/07/26 02:44:38;;;;;;;8.30;8.00;;;16.00;99.90;;;;;;5090764;28;20217;-65
2023/07/26 02:47:05;;;;;;;8.53;8.23;;;16.00;99.90;;;;;;5090631;28;20277;-64
2023/07/26 02:49:34;;;;;;;8.33;8.03;;;16.00;99.90;;;;;;5090312;28;20235;-66
2023/07/26 02:52:01;;;;;;;8.77;8.47;;;15.90;99.90;;;;;;5091113;28;20202;-64
2023/07/26 02:54:27;;;;;;;8.27;7.97;;;15.90;99.90;;;;;;5090215;28;20633;-65
2023/07/26 02:56:54;;;;;;;8.93;8.63;;;15.90;99.90;;;;;;5085408;28;20302;-65
2023/07/26 02:59:21;;;;;;;8.33;8.03;;;15.90;99.90;;;;;;5069958;28;20205;-65
2023/07/26 03:01:48;;;;;;;8.17;7.87;;;15.90;99.90;;;;;;5070175;28;20681;-64
2023/07/26 03:04:14;;;;;;;8.50;8.18;;;15.90;99.90;;;;;;5072404;28;20210;-65
2023/07/26 03:06:43;;;;;;;8.13;7.83;;;15.80;99.90;;;;;;5071761;28;20235;-65
2023/07/26 03:09:10;;;;;;;8.27;7.97;;;15.80;99.90;;;;;;5064093;28;20966;-64
2023/07/26 03:11:37;;;;;;;8.30;8.00;;;15.80;99.90;;;;;;5052344;28;20705;-65
2023/07/26 03:14:04;;;;;;;8.63;8.33;;;15.80;99.90;;;;;;5051766;28;20208;-66
2023/07/26 03:16:31;;;;;;;8.33;8.03;;;15.80;99.90;;;;;;5052240;28;20223;-65
2023/07/26 03:18:58;;;;;;;8.13;7.83;;;15.80;99.90;;;;;;5054566;28;20533;-68
2023/07/26 03:21:25;;;;;;;8.47;8.17;;;15.70;99.90;;;;;;5053655;28;20302;-65
2023/07/26 03:23:53;;;;;;;8.40;8.10;;;15.70;99.90;;;;;;5054627;28;20204;-65
2023/07/26 03:26:20;;;;;;;8.30;8.00;;;15.70;99.90;;;;;;5055581;28;20234;-65
2023/07/26 03:28:47;;;;;;;8.17;7.87;;;15.70;99.90;;;;;;5058222;28;20230;-66
2023/07/26 03:31:13;;;;;;;8.90;8.60;;;15.70;99.90;;;;;;5060567;28;20314;-66
2023/07/26 03:33:40;;;;;;;8.40;8.10;;;15.70;99.90;;;;;;5061702;28;20299;-66
2023/07/26 03:36:07;;;;;;;8.37;7.97;;;15.60;99.90;;;;;;5060585;28;20223;-66
2023/07/26 03:38:34;;;;;;;8.57;8.27;;;15.60;99.90;;;;;;5056164;28;20278;-67
2023/07/26 03:41:02;;;;;;;8.27;7.97;;;15.70;99.90;;;;;;5054015;28;20207;-65
2023/07/26 03:43:29;;;;;;;7.77;7.50;;;15.70;99.90;;;;;;5053443;28;20214;-64
2023/07/26 03:45:56;;;;;;;7.17;6.87;;;15.60;99.90;;;;;;5054884;28;20746;-64
2023/07/26 03:48:22;;;;;;;6.67;6.47;;;15.60;99.90;;;;;;5054133;28;20208;-65
2023/07/26 03:50:49;;;;;;;8.70;8.40;;;15.60;99.90;;;;;;5051184;28;20216;-67
2023/07/26 03:53:16;;;;;;;8.40;8.10;;;15.60;99.90;;;;;;5053949;28;20223;-65
2023/07/26 03:55:43;;;;;;;7.73;7.43;;;15.60;99.90;;;;;;5054180;28;20251;-65
2023/07/26 03:58:11;;;;;;;8.52;8.23;;;15.50;99.90;;;;;;5058353;28;20246;-65
2023/07/26 04:00:38;;;;;;;8.07;7.67;;;15.50;99.90;;;;;;5055315;28;20204;-66
2023/07/26 04:03:05;;;;;;;8.70;8.40;;;15.50;99.90;;;;;;5055245;28;20295;-65
2023/07/26 04:05:33;;;;;;;9.23;8.93;;;15.50;99.90;;;;;;5052892;28;20322;-63
2023/07/26 04:08:00;;;;;;;8.63;8.33;;;15.50;99.90;;;;;;5053089;28;20291;-63
2023/07/26 04:10:28;;;;;;;8.50;8.10;;;15.40;99.90;;;;;;5051474;28;20290;-65
2023/07/26 04:12:54;;;;;;;7.93;7.63;;;15.50;99.90;;;;;;5051364;28;20239;-64
2023/07/26 04:15:23;;;;;;;8.73;8.43;;;15.40;99.90;;;;;;5051410;28;20228;-65
2023/07/26 04:17:50;;;;;;;8.90;8.60;;;15.30;99.90;;;;;;5051007;28;20294;-65
2023/07/26 04:20:16;;;;;;;8.53;8.17;;;15.30;99.90;;;;;;5050134;28;20227;-64
2023/07/26 04:22:43;;;;;;;8.70;8.40;;;15.20;99.90;;;;;;5051033;28;20299;-64
2023/07/26 04:25:10;;;;;;;8.60;8.30;;;15.20;99.90;;;;;;5052091;28;20731;-64
2023/07/26 04:27:37;;;;;;;9.00;8.50;;;15.30;99.90;;;;;;5055022;28;20290;-63
2023/07/26 04:30:05;;;;;;;8.70;8.40;;;15.30;99.90;;;;;;5054360;28;20235;-63
2023/07/26 04:32:33;;;;;;;8.87;8.57;;;15.30;99.90;;;;;;5051837;28;20274;-65
2023/07/26 04:35:00;;;;;;;9.10;8.80;;;15.40;99.90;;;;;;5057195;28;20276;-63
2023/07/26 04:37:27;;;;;;;8.93;8.63;;;15.40;99.90;;;;;;5054506;28;20208;-63
2023/07/26 04:39:53;;;;;;;8.87;8.57;;;15.30;99.90;;;;;;5052137;28;20992;-66
2023/07/26 04:42:20;;;;;;;9.07;8.77;;;15.40;99.90;;;;;;5060101;28;20591;-64
2023/07/26 04:44:47;;;;;;;9.27;8.87;;;15.40;99.90;;;;;;5072110;28;20218;-65
2023/07/26 04:47:15;;;;;;;8.57;8.27;;;15.40;99.90;;;;;;5072346;28;20206;-66
2023/07/26 04:49:43;;;;;;;9.17;8.87;;;15.40;99.90;;;;;;5071806;28;20195;-63
2023/07/26 04:52:10;;;;;;;8.40;8.10;;;15.50;99.90;;;;;;5069678;28;20207;-66
2023/07/26 04:54:37;;;;;;;8.57;8.27;;;15.50;99.90;;;;;;5066113;28;20199;-65
2023/07/26 04:57:04;;;;;;;8.27;7.97;;;15.40;99.90;;;;;;5064370;28;20333;-63
2023/07/26 04:59:31;;;;;;;8.80;8.50;;;15.40;99.90;;;;;;5060418;28;20223;-63
2023/07/26 05:01:58;;;;;;;8.90;8.60;;;15.40;99.90;;;;;;5051414;28;20218;-63
2023/07/26 05:04:24;;;;;;;8.43;8.13;;;15.30;99.90;;;;;;5053227;28;20323;-65
2023/07/26 05:06:55;;;;;;;8.70;8.40;;;15.40;99.90;;;;;;5072573;28;20322;-64
2023/07/26 05:09:21;;;;;;;9.33;8.93;;;15.30;99.90;;;;;;5072675;28;20288;-64
2023/07/26 05:11:48;;;;;;;8.80;8.40;;;15.40;99.90;;;;;;5067772;28;20199;-65
2023/07/26 05:14:16;;;;;;;8.13;7.83;;;15.20;99.90;;;;;;5074200;28;20290;-65
2023/07/26 05:16:42;;;;;;;8.87;8.57;;;15.20;99.90;;;;;;5069755;28;20276;-63
2023/07/26 05:19:09;;;;;;;8.77;8.47;;;15.30;99.90;;;;;;5079087;28;20229;-64
2023/07/26 05:21:36;;;;;;;8.77;8.47;;;15.20;99.90;;;;;;5081360;28;20507;-65
2023/07/26 05:24:05;;;;;;;9.27;8.90;;;15.20;99.90;;;;;;5077330;28;20286;-62
2023/07/26 05:26:31;;;;;;;8.93;8.63;;;15.30;99.90;;;;;;5070550;28;20733;-66
2023/07/26 05:28:58;;;;;;;9.50;9.20;;;15.30;99.90;;;;;;5071692;28;20196;-65
2023/07/26 05:31:25;;;;;;;9.07;8.77;;;15.40;99.90;;;;;;5071756;28;20600;-64
2023/07/26 05:33:52;;;;;;;9.37;9.07;;;15.40;99.90;;;;;;5072675;28;20226;-63
2023/07/26 05:36:19;;;;;;;8.80;8.50;;;15.40;99.90;;;;;;5063139;28;20230;-64
2023/07/26 05:38:45;;;;;;;8.63;8.33;;;15.40;99.90;;;;;;5065539;28;20203;-64
2023/07/26 05:41:14;;;;;;;9.07;8.70;;;15.50;99.90;;;;;;5052966;28;20212;-64
2023/07/26 05:43:40;;;;;;;8.43;8.13;;;15.50;99.90;;;;;;5062135;28;20280;-64
2023/07/26 05:46:07;;;;;;;9.00;8.70;;;15.50;99.90;;;;;;5065788;28;20226;-64
2023/07/26 05:48:34;;;;;;;8.60;8.30;;;15.50;99.90;;;;;;5066035;28;20224;-64
2023/07/26 05:51:01;;;;;;;9.30;9.00;;;15.50;99.90;;;;;;5076045;28;20206;-64
2023/07/26 05:53:28;;;;;;;8.53;8.23;;;15.60;99.90;;;;;;5071623;28;20203;-63
2023/07/26 05:55:55;;;;;;;8.97;8.67;;;15.60;99.90;;;;;;5068340;28;20223;-65
2023/07/26 05:58:23;;;;;;;9.40;9.10;;;15.60;99.90;;;;;;5070689;28;20191;-63
2023/07/26 06:00:50;;;;;;;9.23;8.93;;;15.60;99.90;;;;;;5069890;28;20248;-65
2023/07/26 06:03:17;;;;;;;8.40;8.10;;;15.60;99.90;;;;;;5070832;28;20207;-63
2023/07/26 06:05:44;;;;;;;9.00;8.70;;;15.70;99.90;;;;;;5070878;28;20778;-65
2023/07/26 06:08:11;;;;;;;9.00;8.70;;;15.70;99.90;;;;;;5071427;28;20211;-64
2023/07/26 06:10:38;;;;;;;9.23;8.93;;;15.70;99.90;;;;;;5069139;28;20195;-65
2023/07/26 06:13:05;;;;;;;9.47;9.07;;;15.70;99.90;;;;;;5069984;28;20203;-65
2023/07/26 06:15:33;;;;;;;9.23;8.93;;;15.70;99.90;;;;;;5070702;28;20227;-64
2023/07/26 06:18:00;;;;;;;8.90;8.60;;;15.80;99.90;;;;;;5066152;28;20570;-64
2023/07/26 06:20:27;;;;;;;8.27;7.97;;;15.80;99.90;;;;;;5049144;28;20222;-63
2023/07/26 06:22:54;;;;;;;8.60;8.30;;;16.00;99.90;;;;;;5050073;28;20214;-65
2023/07/26 06:25:20;;;;;;;8.80;8.50;;;15.90;99.90;;;;;;5065061;28;20219;-65
2023/07/26 06:27:47;;;;;;;9.00;8.70;;;15.90;99.90;;;;;;5070377;28;20199;-65
2023/07/26 06:30:15;;;;;;;9.00;8.70;;;15.90;99.90;;;;;;5069565;28;20207;-64
2023/07/26 06:32:43;;;;;;;8.80;8.50;;;15.80;99.90;;;;;;5071620;28;20220;-64
2023/07/26 06:35:11;;;;;;;9.27;8.97;;;15.90;99.90;;;;;;5072050;28;20350;-63
2023/07/26 06:37:38;;;;;;;9.30;9.00;;;15.90;99.90;;;;;;5072855;28;20289;-65
2023/07/26 06:40:05;;;;;;;9.43;9.13;;;15.90;99.90;;;;;;5077474;28;20310;-64
2023/07/26 06:42:33;;;;;;;8.83;8.53;;;15.90;99.90;;;;;;5074251;28;20207;-64
2023/07/26 06:45:00;;;;;;;9.07;8.77;;;16.00;99.90;;;;;;5073302;28;20279;-64
2023/07/26 06:47:26;;;;;;;8.97;8.67;;;16.00;99.90;;;;;;5073124;28;20208;-64
2023/07/26 06:49:55;;;;;;;9.40;9.10;;;16.00;99.90;;;;;;5069820;28;20716;-64
2023/07/26 06:52:22;;;;;;;9.17;8.87;;;16.00;99.90;;;;;;5070207;28;20669;-64
2023/07/26 06:54:48;;;;;;;9.03;8.73;;;16.00;99.90;;;;;;5070170;28;20213;-64
2023/07/26 06:57:15;;;;;;;8.67;8.37;;;16.00;99.90;;;;;;5069845;28;20207;-63
2023/07/26 06:59:42;;;;;;;8.70;8.40;;;16.00;99.90;;;;;;5068873;28;20223;-64
2023/07/26 07:02:09;;;;;;;8.85;8.55;;;16.10;99.90;;;;;;5070032;28;20203;-64
2023/07/26 07:04:36;;;;;;;8.77;8.47;;;16.00;99.90;;;;;;5069813;28;21051;-65
2023/07/26 07:07:04;;;;;;;8.60;8.30;;;16.00;99.90;;;;;;5069780;28;20242;-65
2023/07/26 07:09:31;;;;;;;8.70;8.40;;;16.00;99.90;;;;;;5068971;28;20291;-65
2023/07/26 07:11:58;;;;;;;8.90;8.60;;;16.10;99.90;;;;;;5068605;28;20317;-65
2023/07/26 07:14:25;;;;;;;9.50;9.10;;;16.10;99.90;;;;;;5070804;28;20203;-64
2023/07/26 07:16:52;;;;;;;9.43;9.13;;;16.10;99.90;;;;;;5070651;28;20225;-64
2023/07/26 07:19:18;;;;;;;9.20;8.90;;;16.20;99.90;;;;;;5069821;28;20208;-64
2023/07/26 07:21:45;;;;;;;9.57;9.20;;;16.30;99.90;;;;;;5070490;28;20230;-64
2023/07/26 07:24:13;;;;;;;9.60;9.30;;;16.30;99.90;;;;;;5069967;28;20211;-64
2023/07/26 07:26:40;;;;;;;9.07;8.77;;;16.30;99.90;;;;;;5069625;28;20238;-64
2023/07/26 07:29:07;;;;;;;9.73;9.43;;;16.30;99.90;;;;;;5068744;28;20203;-65
2023/07/26 07:31:34;;;;;;;9.07;8.73;;;16.30;99.90;;;;;;5069443;28;20951;-64
2023/07/26 07:34:00;;;;;;;8.90;8.60;;;16.40;99.90;;;;;;5069426;28;20211;-64
2023/07/26 07:36:27;;;;;;;8.97;8.67;;;16.40;99.90;;;;;;5069580;28;20224;-64
2023/07/26 07:38:54;;;;;;;9.33;9.03;;;16.40;99.90;;;;;;5069758;28;20213;-64
2023/07/26 07:41:22;;;;;;;9.13;8.83;;;16.50;99.90;;;;;;5070207;28;20318;-65
2023/07/26 07:43:49;;;;;;;9.00;8.70;;;16.40;99.90;;;;;;5082256;28;20203;-64
2023/07/26 07:46:16;;;;;;;10.13;9.77;;;16.60;99.90;;;;;;5069594;28;20231;-64
2023/07/26 07:48:43;;;;;;;9.50;9.20;;;16.50;99.90;;;;;;5069540;28;20298;-64
2023/07/26 07:51:09;;;;;;;9.90;9.60;;;16.70;99.90;;;;;;5068299;28;20673;-64
2023/07/26 07:53:36;;;;;;;10.60;10.20;;;16.60;99.90;;;;;;5068661;28;20209;-64
2023/07/26 07:56:03;;;;;;;10.40;10.00;;;16.80;99.90;;;;;;5069096;28;20227;-65
2023/07/26 07:58:31;;;;;;;10.43;10.13;;;16.80;99.90;;;;;;5069126;28;20680;-64
2023/07/26 08:00:59;;;;;;;10.07;9.77;;;16.90;99.90;;;;;;5070506;28;20223;-64
2023/07/26 08:03:26;;;;;;;10.20;9.80;;;17.00;99.90;;;;;;5073063;28;20199;-65
2023/07/26 08:05:53;;;;;;;9.47;9.17;;;17.00;99.90;;;;;;5072856;28;20232;-65
2023/07/26 08:08:20;;;;;;;9.73;9.43;;;17.10;99.90;;;;;;5073214;22;20270;-66
2023/07/26 08:10:46;;;;;;;9.60;9.30;;;17.20;99.90;;;;;;5052469;28;20662;-67
2023/07/26 08:13:13;;;;;;;9.50;9.20;;;17.20;99.90;;;;;;5053198;28;20206;-68
2023/07/26 08:15:41;;;;;;;9.27;8.97;;;17.20;99.90;;;;;;5056232;28;20244;-65
2023/07/26 08:18:09;;;;;;;9.83;9.43;;;17.10;99.90;;;;;;5034051;28;20321;-66
2023/07/26 08:20:36;;;;;;;9.77;9.47;;;17.00;99.90;;;;;;5022543;28;20226;-67
2023/07/26 08:23:04;;;;;;;9.60;9.30;;;17.00;99.90;;;;;;5023688;28;20201;-67
2023/07/26 08:25:31;;;;;;;9.90;9.50;;;16.80;99.90;;;;;;5024882;28;20213;-67
2023/07/26 08:27:58;;;;;;;9.60;9.30;;;16.90;99.90;;;;;;5024133;28;20221;-66
2023/07/26 08:30:25;;;;;;;9.60;9.20;;;16.90;99.90;;;;;;5014172;28;20201;-67
2023/07/26 08:32:53;;;;;;;9.50;9.20;;;17.00;99.90;;;;;;5016176;28;20206;-66
2023/07/26 08:35:20;;;;;;;9.07;8.77;;;17.10;99.90;;;;;;5017877;28;20209;-67
2023/07/26 08:37:47;;;;;;;9.77;9.37;;;17.30;99.90;;;;;;5024837;28;20694;-68
2023/07/26 08:40:15;;;;;;;9.70;9.40;;;17.30;99.90;;;;;;5020288;28;20216;-66
2023/07/26 08:42:42;;;;;;;9.50;9.10;;;17.20;99.90;;;;;;5028499;28;20244;-68
2023/07/26 08:45:10;;;;;;;10.07;9.77;;;17.20;99.90;;;;;;5024568;28;20226;-66
2023/07/26 08:47:37;;;;;;;10.27;9.97;;;17.30;99.90;;;;;;5020927;28;20307;-66
2023/07/26 08:50:07;;;;;;;9.97;9.67;;;17.30;99.90;;;;;;5020324;28;20201;-68
2023/07/26 08:52:35;;;;;;;9.67;9.37;;;17.30;99.90;;;;;;5018226;28;20310;-66
2023/07/26 08:55:02;;;;;;;9.50;9.20;;;17.20;99.90;;;;;;5024627;28;20300;-67
2023/07/26 08:57:29;;;;;;;10.00;9.60;;;17.10;99.90;;;;;;5025567;28;20221;-67
2023/07/26 08:59:55;;;;;;;9.27;8.87;;;17.10;99.90;;;;;;5022588;28;20204;-67
2023/07/26 09:02:23;;;;;;;11.43;11.03;;;17.00;99.90;;;;;;5021305;28;20344;-68
2023/07/26 09:04:50;;;;;;;10.03;9.63;;;16.90;99.90;;;;;;5022442;28;20200;-66
2023/07/26 09:07:19;;;;;;;10.07;9.77;;;16.80;99.90;;;;;;5023580;28;20786;-67
2023/07/26 09:09:46;;;;;;;10.43;10.07;;;16.80;99.90;;;;;;5022177;28;20223;-66
2023/07/26 09:12:25;;;;;;;8.50;8.20;;;16.70;99.90;;;;;;5026866;28;20260;-67
2023/07/26 09:14:55;;;;;;;33.27;31.57;;;16.60;99.90;;;;;;5028996;28;20200;-66
2023/07/26 09:17:22;;;;;;;8.43;8.03;;;16.30;99.90;;;;;;5026883;28;20213;-68
2023/07/26 09:19:51;;;;;;;15.77;15.13;;;16.00;99.90;;;;;;5024456;28;20671;-69
2023/07/26 09:22:22;;;;;;;11.63;11.23;;;15.40;99.90;;;;;;5020027;28;20878;-67
2023/07/26 09:24:50;;;;;;;14.93;14.33;;;15.00;99.90;;;;;;5022608;28;20217;-67
2023/07/26 09:27:19;;;;;;;9.10;8.80;;;14.80;99.90;;;;;;5023676;28;20235;-67
2023/07/26 09:29:55;;;;;;;11.10;10.70;;;14.60;99.90;;;;;;5021008;28;20292;-67
2023/07/26 09:32:27;;;;;;;8.63;8.33;;;14.60;99.90;;;;;;5023176;28;20200;-67
2023/07/26 09:34:55;;;;;;;8.23;7.93;;;14.50;99.90;;;;;;5019499;28;20214;-66
2023/07/26 09:37:23;;;;;;;8.33;8.03;;;14.70;99.90;;;;;;5024743;28;20224;-66
2023/07/26 09:39:51;;;;;;;8.07;7.77;;;14.70;99.90;;;;;;5032488;28;20295;-67
2023/07/26 09:42:18;;;;;;;8.50;8.20;;;14.70;99.90;;;;;;5034236;28;20310;-67
2023/07/26 09:44:47;;;;;;;8.43;8.13;;;14.80;99.90;;;;;;5032098;28;20201;-68
2023/07/26 09:47:16;;;;;;;8.80;8.50;;;14.90;99.90;;;;;;5032064;28;20240;-67
2023/07/26 09:49:50;;;;;;;8.77;8.47;;;15.00;99.90;;;;;;5031683;28;20659;-68
2023/07/26 09:52:21;;;;;;;8.33;8.03;;;15.10;99.90;;;;;;5032811;28;20296;-67
2023/07/26 09:54:51;;;;;;;8.80;8.50;;;15.10;99.90;;;;;;5029550;28;20635;-67
2023/07/26 09:57:19;;;;;;;8.20;7.90;;;15.20;99.90;;;;;;5031608;28;20247;-68
2023/07/26 09:59:48;;;;;;;8.87;8.57;;;15.30;99.90;;;;;;5031772;28;20204;-67
2023/07/26 10:02:16;;;;;;;7.87;7.57;;;15.30;99.90;;;;;;5034413;28;20228;-68
2023/07/26 10:04:49;;;;;;;8.50;8.10;;;15.40;99.90;;;;;;5035924;28;20663;-67
2023/07/26 10:07:17;;;;;;;7.50;7.20;;;15.60;99.90;;;;;;5035059;28;20232;-69
2023/07/26 10:09:45;;;;;;;8.73;8.43;;;15.60;99.90;;;;;;5035321;28;20205;-67
2023/07/26 10:12:15;;;;;;;7.83;7.53;;;15.70;99.90;;;;;;5027273;28;20291;-67
2023/07/26 10:14:42;;;;;;;8.73;8.43;;;15.70;99.90;;;;;;5020883;28;20328;-66
2023/07/26 10:17:11;;;;;;;8.40;8.10;;;15.90;99.90;;;;;;5026685;28;20239;-66
2023/07/26 10:19:41;;;;;;;7.73;7.43;;;16.20;99.90;;;;;;5022404;28;20749;-68
2023/07/26 10:22:08;;;;;;;8.27;7.97;;;16.50;99.90;;;;;;5020237;28;20243;-68
2023/07/26 10:24:38;;;;;;;10.13;9.77;;;16.70;99.90;;;;;;5019699;28;20671;-67
2023/07/26 10:27:05;;;;;;;9.70;9.40;;;17.10;99.90;;;;;;5020739;28;20234;-68
2023/07/26 10:29:34;;;;;;;9.90;9.60;;;17.30;99.90;;;;;;5020568;28;20201;-68
2023/07/26 10:32:01;;;;;;;9.87;9.57;;;17.30;99.90;;;;;;5021726;28;20571;-68
2023/07/26 10:34:28;;;;;;;9.80;9.50;;;17.50;99.90;;;;;;5022111;28;20609;-68
2023/07/26 10:36:55;;;;;;;10.10;9.70;;;17.50;99.90;;;;;;5022060;28;20238;-67
2023/07/26 10:39:32;;;;;;;9.40;9.10;;;17.50;99.90;;;;;;5019713;28;20197;-66
2023/07/26 10:41:59;;;;;;;9.80;9.50;;;17.60;99.90;;;;;;5016268;28;20220;-69
2023/07/26 10:44:26;;;;;;;9.53;9.23;;;17.70;99.90;;;;;;5022323;28;20213;-68
2023/07/26 10:46:55;;;;;;;10.40;10.00;;;17.80;99.90;;;;;;5020606;28;20832;-68
2023/07/26 10:49:26;;;;;;;10.43;10.03;;;18.00;99.90;;;;;;5027482;28;20201;-67
2023/07/26 10:51:57;;;;;;;10.57;10.17;;;18.00;99.90;;;;;;5029409;28;20316;-68
2023/07/26 10:54:36;;;;;;;10.60;10.20;;;18.30;99.90;;;;;;5010331;28;20698;-67
2023/07/26 10:57:17;;;;;;;10.80;10.40;;;18.50;99.90;;;;;;5024801;28;20230;-66
2023/07/26 10:59:52;;;;;;;10.53;10.13;;;18.50;99.90;;;;;;5020287;28;20211;-68
2023/07/26 11:02:35;;;;;;;10.85;10.45;;;18.50;99.90;;;;;;5021170;28;20221;-66
2023/07/26 11:05:03;;;;;;;9.97;9.67;;;18.60;99.90;;;;;;5016121;28;20242;-67
2023/07/26 11:07:58;;;;;;;9.93;9.63;;;18.70;99.90;;;;;;5026499;28;20710;-67
2023/07/26 11:10:28;;;;;;;14.63;14.00;;;18.90;99.90;;;;;;5029142;28;20209;-68
2023/07/26 11:13:06;;;;;;;10.83;10.43;;;18.90;99.90;;;;;;5022427;28;20255;-65
2023/07/26 11:15:35;;;;;;;9.85;9.55;;;18.90;99.90;;;;;;5021705;28;20230;-68
2023/07/26 11:18:04;;;;;;;10.80;10.40;;;18.80;99.90;;;;;;5021773;28;20240;-69
2023/07/26 11:20:30;;;;;;;10.77;10.40;;;18.90;99.90;;;;;;5017588;28;20231;-67
2023/07/26 11:22:57;;;;;;;9.93;9.63;;;18.90;99.90;;;;;;5024935;28;20205;-66
2023/07/26 11:25:25;;;;;;;11.00;10.60;;;18.90;99.90;;;;;;5021068;28;20211;-67
2023/07/26 11:27:52;;;;;;;11.70;11.30;;;18.90;99.90;;;;;;5018415;28;20225;-68
2023/07/26 11:30:21;;;;;;;9.75;9.45;;;18.80;99.90;;;;;;5018040;28;20213;-67
2023/07/26 11:32:49;;;;;;;10.88;10.48;;;18.70;99.90;;;;;;5021452;28;20208;-66
2023/07/26 11:35:19;;;;;;;10.67;10.33;;;18.70;99.90;;;;;;5018417;28;20201;-68
2023/07/26 11:37:53;;;;;;;12.50;12.10;;;18.60;99.90;;;;;;5030830;28;20224;-68
2023/07/26 11:40:20;;;;;;;11.70;11.30;;;18.50;99.90;;;;;;5032543;28;20205;-67
2023/07/26 11:42:48;;;;;;;11.30;10.90;;;18.30;99.90;;;;;;5031640;28;20220;-67
2023/07/26 11:45:16;;;;;;;10.43;10.13;;;18.20;99.90;;;;;;5046126;28;20251;-68
2023/07/26 11:47:45;;;;;;;10.95;10.57;;;18.10;99.90;;;;;;5031833;28;20316;-68
2023/07/26 11:50:18;;;;;;;11.93;11.53;;;18.10;99.90;;;;;;5032876;28;20267;-66
2023/07/26 11:52:48;;;;;;;12.67;12.27;;;18.20;99.90;;;;;;5020105;28;20200;-68
2023/07/26 11:55:15;;;;;;;11.07;10.67;;;18.50;99.90;;;;;;5027858;28;20212;-68
2023/07/26 11:57:42;;;;;;;12.70;12.30;;;18.70;99.90;;;;;;5024924;28;20217;-68
2023/07/26 12:00:10;;;;;;;11.77;11.37;;;18.90;99.90;;;;;;5020978;28;20265;-68
2023/07/26 12:02:36;;;;;;;19.73;19.03;;;19.20;99.90;;;;;;5022943;28;20221;-68
2023/07/26 12:05:20;;;;;;;17.00;16.40;;;19.40;99.90;;;;;;5023744;28;20677;-67
2023/07/26 12:07:50;;;;;;;10.63;10.23;;;19.40;99.90;;;;;;5027154;28;20228;-69
2023/07/26 12:10:19;;;;;;;10.53;10.13;;;19.50;99.90;;;;;;5023944;28;20200;-69
2023/07/26 12:12:46;;;;;;;11.70;11.30;;;19.50;99.90;;;;;;5020522;28;20262;-68
2023/07/26 12:15:13;;;;;;;11.70;11.30;;;19.40;99.90;;;;;;5017657;28;20240;-66
2023/07/26 12:17:56;;;;;;;12.13;11.70;;;19.20;99.90;;;;;;5024612;28;20312;-68
2023/07/26 12:20:25;;;;;;;11.77;11.37;;;19.00;99.90;;;;;;5029004;28;20212;-67
2023/07/26 12:22:54;;;;;;;13.90;13.40;;;18.90;99.90;;;;;;5021973;28;20221;-67
2023/07/26 12:25:22;;;;;;;13.80;13.30;;;18.80;99.90;;;;;;5013168;28;20212;-66
2023/07/26 12:27:49;;;;;;;12.33;11.93;;;18.70;99.90;;;;;;5017249;28;20221;-67
2023/07/26 12:30:19;;;;;;;13.83;13.33;;;18.80;99.90;;;;;;5031531;28;20209;-67
2023/07/26 12:32:46;;;;;;;11.30;10.90;;;18.80;99.90;;;;;;5035874;28;20205;-68
2023/07/26 12:35:21;;;;;;;11.10;10.70;;;19.00;99.90;;;;;;5035487;28;20232;-66
2023/07/26 12:37:49;;;;;;;9.80;9.50;;;19.10;99.90;;;;;;5032529;28;20224;-67
2023/07/26 12:40:19;;;;;;;9.60;9.30;;;19.30;99.90;;;;;;5024345;28;20204;-68
2023/07/26 12:42:46;;;;;;;10.17;9.87;;;19.40;99.90;;;;;;5029347;28;20475;-66
2023/07/26 12:45:13;;;;;;;9.37;9.07;;;19.60;99.90;;;;;;5028108;28;20219;-67
2023/07/26 12:47:41;;;;;;;8.88;8.57;;;19.80;99.90;;;;;;5030201;28;20747;-67